sensor_id;sensor_type;location;lat;lon;timestamp;P1;durP1;ratioP1;P2;durP2;ratioP2
30934;SDS011;51033;42.648;23.292;2023-05-14T00:02:23;4.72;;;3.45;;
30934;SDS011;51033;42.648;23.292;2023-05-14T00:04:49;4.95;;;3.60;;
30934;SDS011;51033;42.648;23.292;2023-05-14T00:07:14;6.28;;;3.25;;
30934;SDS011;51033;42.648;23.292;2023-05-14T00:09:40;5.15;;;3.53;;
30934;SDS011;51033;42.648;23.292;2023-05-14T00:12:06;6.18;;;3.40;;
30934;SDS011;51033;42.648;23.292;2023-05-14T00:14:31;5.97;;;3.35;;
30934;SDS011;51033;42.648;23.292;2023-05-14T00:16:57;7.88;;;3.72;;
30934;SDS011;51033;42.648;23.292;2023-05-14T00:19:23;5.35;;;3.03;;
30934;SDS011;51033;42.648;23.292;2023-05-14T00:21:49;6.35;;;3.85;;
30934;SDS011;51033;42.648;23.292;2023-05-14T00:24:14;4.03;;;3.15;;
30934;SDS011;51033;42.648;23.292;2023-05-14T00:26:39;6.00;;;3.15;;
30934;SDS011;51033;42.648;23.292;2023-05-14T00:29:05;7.38;;;3.55;;
30934;SDS011;51033;42.648;23.292;2023-05-14T00:31:30;4.97;;;3.22;;
30934;SDS011;51033;42.648;23.292;2023-05-14T00:33:56;4.85;;;3.53;;
30934;SDS011;51033;42.648;23.292;2023-05-14T00:36:21;4.95;;;3.63;;
30934;SDS011;51033;42.648;23.292;2023-05-14T00:38:46;7.95;;;3.38;;
30934;SDS011;51033;42.648;23.292;2023-05-14T00:41:12;6.68;;;3.78;;
30934;SDS011;51033;42.648;23.292;2023-05-14T00:43:37;4.75;;;4.20;;
30934;SDS011;51033;42.648;23.292;2023-05-14T00:46:03;3.85;;;3.55;;
30934;SDS011;51033;42.648;23.292;2023-05-14T00:48:28;8.40;;;3.13;;
30934;SDS011;51033;42.648;23.292;2023-05-14T00:50:54;6.65;;;3.85;;
30934;SDS011;51033;42.648;23.292;2023-05-14T00:53:19;5.13;;;3.42;;
30934;SDS011;51033;42.648;23.292;2023-05-14T00:55:45;8.55;;;3.65;;
30934;SDS011;51033;42.648;23.292;2023-05-14T00:58:13;6.07;;;4.10;;
30934;SDS011;51033;42.648;23.292;2023-05-14T01:00:39;5.68;;;3.47;;
30934;SDS011;51033;42.648;23.292;2023-05-14T01:03:05;5.15;;;3.13;;
30934;SDS011;51033;42.648;23.292;2023-05-14T01:08:28;6.10;;;3.85;;
30934;SDS011;51033;42.648;23.292;2023-05-14T01:11:05;6.50;;;3.55;;
30934;SDS011;51033;42.648;23.292;2023-05-14T01:16:19;4.78;;;3.72;;
30934;SDS011;51033;42.648;23.292;2023-05-14T01:18:47;4.03;;;3.40;;
30934;SDS011;51033;42.648;23.292;2023-05-14T01:24:01;6.25;;;4.28;;
30934;SDS011;51033;42.648;23.292;2023-05-14T01:26:28;5.50;;;4.20;;
30934;SDS011;51033;42.648;23.292;2023-05-14T01:28:56;13.55;;;4.57;;
30934;SDS011;51033;42.648;23.292;2023-05-14T01:31:26;6.63;;;3.92;;
30934;SDS011;51033;42.648;23.292;2023-05-14T01:33:56;8.50;;;3.92;;
30934;SDS011;51033;42.648;23.292;2023-05-14T01:36:23;8.48;;;3.67;;
30934;SDS011;51033;42.648;23.292;2023-05-14T01:38:49;5.05;;;3.78;;
30934;SDS011;51033;42.648;23.292;2023-05-14T01:41:16;4.50;;;3.28;;
30934;SDS011;51033;42.648;23.292;2023-05-14T01:43:43;4.70;;;3.90;;
30934;SDS011;51033;42.648;23.292;2023-05-14T01:46:09;3.53;;;3.03;;
30934;SDS011;51033;42.648;23.292;2023-05-14T01:48:35;4.20;;;3.13;;
30934;SDS011;51033;42.648;23.292;2023-05-14T01:51:01;5.18;;;3.13;;
30934;SDS011;51033;42.648;23.292;2023-05-14T01:53:28;4.68;;;2.85;;
30934;SDS011;51033;42.648;23.292;2023-05-14T01:55:53;4.95;;;3.67;;
30934;SDS011;51033;42.648;23.292;2023-05-14T01:58:18;3.90;;;2.92;;
30934;SDS011;51033;42.648;23.292;2023-05-14T02:00:44;5.13;;;2.80;;
30934;SDS011;51033;42.648;23.292;2023-05-14T02:03:09;5.65;;;2.92;;
30934;SDS011;51033;42.648;23.292;2023-05-14T02:05:35;3.45;;;3.15;;
30934;SDS011;51033;42.648;23.292;2023-05-14T02:08:00;5.88;;;2.63;;
30934;SDS011;51033;42.648;23.292;2023-05-14T02:10:25;7.53;;;3.42;;
30934;SDS011;51033;42.648;23.292;2023-05-14T02:12:51;7.72;;;3.42;;
30934;SDS011;51033;42.648;23.292;2023-05-14T02:15:16;5.47;;;3.10;;
30934;SDS011;51033;42.648;23.292;2023-05-14T02:17:42;3.83;;;2.95;;
30934;SDS011;51033;42.648;23.292;2023-05-14T02:20:07;5.13;;;3.03;;
30934;SDS011;51033;42.648;23.292;2023-05-14T02:22:34;7.85;;;2.88;;
30934;SDS011;51033;42.648;23.292;2023-05-14T02:25:00;4.22;;;3.03;;
30934;SDS011;51033;42.648;23.292;2023-05-14T02:27:25;4.03;;;2.92;;
30934;SDS011;51033;42.648;23.292;2023-05-14T02:29:51;6.45;;;3.05;;
30934;SDS011;51033;42.648;23.292;2023-05-14T02:32:16;3.83;;;2.92;;
30934;SDS011;51033;42.648;23.292;2023-05-14T02:34:42;4.15;;;3.40;;
30934;SDS011;51033;42.648;23.292;2023-05-14T02:37:07;3.38;;;3.08;;
30934;SDS011;51033;42.648;23.292;2023-05-14T02:39:33;5.15;;;2.88;;
30934;SDS011;51033;42.648;23.292;2023-05-14T02:41:58;4.85;;;2.88;;
30934;SDS011;51033;42.648;23.292;2023-05-14T02:44:23;2.63;;;2.30;;
30934;SDS011;51033;42.648;23.292;2023-05-14T02:46:49;3.70;;;3.22;;
30934;SDS011;51033;42.648;23.292;2023-05-14T02:49:15;7.93;;;2.97;;
30934;SDS011;51033;42.648;23.292;2023-05-14T02:51:41;4.38;;;3.03;;
30934;SDS011;51033;42.648;23.292;2023-05-14T02:54:07;5.97;;;2.78;;
30934;SDS011;51033;42.648;23.292;2023-05-14T02:56:34;3.08;;;2.33;;
30934;SDS011;51033;42.648;23.292;2023-05-14T02:58:59;6.07;;;2.88;;
30934;SDS011;51033;42.648;23.292;2023-05-14T03:01:25;4.07;;;3.40;;
30934;SDS011;51033;42.648;23.292;2023-05-14T03:03:50;4.05;;;3.53;;
30934;SDS011;51033;42.648;23.292;2023-05-14T03:06:15;3.95;;;2.70;;
30934;SDS011;51033;42.648;23.292;2023-05-14T03:08:41;5.97;;;2.92;;
30934;SDS011;51033;42.648;23.292;2023-05-14T03:11:06;4.70;;;3.20;;
30934;SDS011;51033;42.648;23.292;2023-05-14T03:13:31;4.25;;;2.88;;
30934;SDS011;51033;42.648;23.292;2023-05-14T03:15:57;5.07;;;3.22;;
30934;SDS011;51033;42.648;23.292;2023-05-14T03:18:22;3.42;;;2.97;;
30934;SDS011;51033;42.648;23.292;2023-05-14T03:20:48;4.30;;;3.17;;
30934;SDS011;51033;42.648;23.292;2023-05-14T03:23:13;4.55;;;3.25;;
30934;SDS011;51033;42.648;23.292;2023-05-14T03:25:39;3.60;;;3.03;;
30934;SDS011;51033;42.648;23.292;2023-05-14T03:28:05;3.78;;;3.42;;
30934;SDS011;51033;42.648;23.292;2023-05-14T03:30:30;5.57;;;3.25;;
30934;SDS011;51033;42.648;23.292;2023-05-14T03:32:56;7.05;;;3.95;;
30934;SDS011;51033;42.648;23.292;2023-05-14T03:35:21;5.72;;;3.55;;
30934;SDS011;51033;42.648;23.292;2023-05-14T03:37:47;3.90;;;3.50;;
30934;SDS011;51033;42.648;23.292;2023-05-14T03:40:12;5.57;;;3.28;;
30934;SDS011;51033;42.648;23.292;2023-05-14T03:42:38;3.80;;;3.40;;
30934;SDS011;51033;42.648;23.292;2023-05-14T03:45:03;8.35;;;4.22;;
30934;SDS011;51033;42.648;23.292;2023-05-14T03:47:29;5.07;;;4.20;;
30934;SDS011;51033;42.648;23.292;2023-05-14T03:49:55;4.03;;;3.72;;
30934;SDS011;51033;42.648;23.292;2023-05-14T03:52:20;4.45;;;3.50;;
30934;SDS011;51033;42.648;23.292;2023-05-14T03:54:46;4.65;;;3.67;;
30934;SDS011;51033;42.648;23.292;2023-05-14T03:57:11;4.72;;;3.92;;
30934;SDS011;51033;42.648;23.292;2023-05-14T03:59:37;4.95;;;4.18;;
30934;SDS011;51033;42.648;23.292;2023-05-14T04:02:02;5.13;;;3.80;;
30934;SDS011;51033;42.648;23.292;2023-05-14T04:04:28;4.10;;;3.60;;
30934;SDS011;51033;42.648;23.292;2023-05-14T04:06:53;4.50;;;3.40;;
30934;SDS011;51033;42.648;23.292;2023-05-14T04:09:18;4.80;;;3.95;;
30934;SDS011;51033;42.648;23.292;2023-05-14T04:11:44;4.93;;;3.55;;
30934;SDS011;51033;42.648;23.292;2023-05-14T04:14:09;4.05;;;3.65;;
30934;SDS011;51033;42.648;23.292;2023-05-14T04:16:34;4.60;;;3.28;;
30934;SDS011;51033;42.648;23.292;2023-05-14T04:19:01;6.20;;;2.92;;
30934;SDS011;51033;42.648;23.292;2023-05-14T04:21:30;6.35;;;3.92;;
30934;SDS011;51033;42.648;23.292;2023-05-14T04:23:56;4.05;;;3.30;;
30934;SDS011;51033;42.648;23.292;2023-05-14T04:26:21;4.85;;;3.30;;
30934;SDS011;51033;42.648;23.292;2023-05-14T04:28:47;6.10;;;3.25;;
30934;SDS011;51033;42.648;23.292;2023-05-14T04:31:12;4.30;;;3.33;;
30934;SDS011;51033;42.648;23.292;2023-05-14T04:33:37;5.40;;;3.25;;
30934;SDS011;51033;42.648;23.292;2023-05-14T04:36:04;3.75;;;3.05;;
30934;SDS011;51033;42.648;23.292;2023-05-14T04:38:29;5.03;;;3.45;;
30934;SDS011;51033;42.648;23.292;2023-05-14T04:40:56;7.93;;;3.50;;
30934;SDS011;51033;42.648;23.292;2023-05-14T04:43:22;8.75;;;4.22;;
30934;SDS011;51033;42.648;23.292;2023-05-14T04:45:47;4.53;;;3.42;;
30934;SDS011;51033;42.648;23.292;2023-05-14T04:48:13;7.00;;;3.70;;
30934;SDS011;51033;42.648;23.292;2023-05-14T04:50:38;6.32;;;3.80;;
30934;SDS011;51033;42.648;23.292;2023-05-14T04:53:03;4.80;;;3.67;;
30934;SDS011;51033;42.648;23.292;2023-05-14T04:55:29;7.47;;;3.08;;
30934;SDS011;51033;42.648;23.292;2023-05-14T04:57:55;5.40;;;3.10;;
30934;SDS011;51033;42.648;23.292;2023-05-14T05:00:20;5.32;;;3.55;;
30934;SDS011;51033;42.648;23.292;2023-05-14T05:02:46;4.68;;;3.08;;
30934;SDS011;51033;42.648;23.292;2023-05-14T05:05:11;3.85;;;3.45;;
30934;SDS011;51033;42.648;23.292;2023-05-14T05:07:37;7.75;;;3.78;;
30934;SDS011;51033;42.648;23.292;2023-05-14T05:10:02;4.03;;;3.47;;
30934;SDS011;51033;42.648;23.292;2023-05-14T05:12:28;5.95;;;4.05;;
30934;SDS011;51033;42.648;23.292;2023-05-14T05:14:58;5.72;;;4.95;;
30934;SDS011;51033;42.648;23.292;2023-05-14T05:17:25;5.90;;;4.97;;
30934;SDS011;51033;42.648;23.292;2023-05-14T05:19:50;7.13;;;5.25;;
30934;SDS011;51033;42.648;23.292;2023-05-14T05:22:16;6.22;;;4.60;;
30934;SDS011;51033;42.648;23.292;2023-05-14T05:24:43;9.63;;;5.78;;
30934;SDS011;51033;42.648;23.292;2023-05-14T05:27:08;10.00;;;5.32;;
30934;SDS011;51033;42.648;23.292;2023-05-14T05:29:34;7.50;;;5.60;;
30934;SDS011;51033;42.648;23.292;2023-05-14T05:32:00;8.00;;;5.45;;
30934;SDS011;51033;42.648;23.292;2023-05-14T05:34:26;8.07;;;5.32;;
30934;SDS011;51033;42.648;23.292;2023-05-14T05:36:51;7.00;;;5.20;;
30934;SDS011;51033;42.648;23.292;2023-05-14T05:39:17;8.10;;;5.55;;
30934;SDS011;51033;42.648;23.292;2023-05-14T05:41:42;5.90;;;5.28;;
30934;SDS011;51033;42.648;23.292;2023-05-14T05:44:08;6.53;;;4.60;;
30934;SDS011;51033;42.648;23.292;2023-05-14T05:46:33;6.45;;;4.65;;
30934;SDS011;51033;42.648;23.292;2023-05-14T05:48:59;5.30;;;4.30;;
30934;SDS011;51033;42.648;23.292;2023-05-14T05:51:24;7.60;;;4.82;;
30934;SDS011;51033;42.648;23.292;2023-05-14T05:53:50;7.47;;;5.32;;
30934;SDS011;51033;42.648;23.292;2023-05-14T05:56:15;7.53;;;4.30;;
30934;SDS011;51033;42.648;23.292;2023-05-14T05:58:41;6.38;;;4.03;;
30934;SDS011;51033;42.648;23.292;2023-05-14T06:01:06;7.97;;;4.45;;
30934;SDS011;51033;42.648;23.292;2023-05-14T06:03:31;7.88;;;5.00;;
30934;SDS011;51033;42.648;23.292;2023-05-14T06:05:57;7.55;;;5.18;;
30934;SDS011;51033;42.648;23.292;2023-05-14T06:08:22;9.60;;;5.38;;
30934;SDS011;51033;42.648;23.292;2023-05-14T06:10:48;11.35;;;5.45;;
30934;SDS011;51033;42.648;23.292;2023-05-14T06:13:13;7.28;;;5.43;;
30934;SDS011;51033;42.648;23.292;2023-05-14T06:15:38;7.30;;;5.00;;
30934;SDS011;51033;42.648;23.292;2023-05-14T06:18:04;6.88;;;5.90;;
30934;SDS011;51033;42.648;23.292;2023-05-14T06:20:29;7.97;;;5.07;;
30934;SDS011;51033;42.648;23.292;2023-05-14T06:22:55;8.43;;;6.03;;
30934;SDS011;51033;42.648;23.292;2023-05-14T06:25:20;6.90;;;5.28;;
30934;SDS011;51033;42.648;23.292;2023-05-14T06:27:46;6.82;;;5.72;;
30934;SDS011;51033;42.648;23.292;2023-05-14T06:30:11;9.40;;;5.63;;
30934;SDS011;51033;42.648;23.292;2023-05-14T06:32:37;7.65;;;5.93;;
30934;SDS011;51033;42.648;23.292;2023-05-14T06:35:03;9.43;;;5.47;;
30934;SDS011;51033;42.648;23.292;2023-05-14T06:37:29;7.88;;;5.53;;
30934;SDS011;51033;42.648;23.292;2023-05-14T06:39:54;8.60;;;5.93;;
30934;SDS011;51033;42.648;23.292;2023-05-14T06:42:20;7.38;;;5.93;;
30934;SDS011;51033;42.648;23.292;2023-05-14T06:44:45;7.65;;;5.60;;
30934;SDS011;51033;42.648;23.292;2023-05-14T06:47:10;7.82;;;5.85;;
30934;SDS011;51033;42.648;23.292;2023-05-14T06:49:36;7.05;;;5.38;;
30934;SDS011;51033;42.648;23.292;2023-05-14T06:52:03;6.82;;;5.70;;
30934;SDS011;51033;42.648;23.292;2023-05-14T06:54:28;8.18;;;6.88;;
30934;SDS011;51033;42.648;23.292;2023-05-14T06:56:55;8.68;;;6.18;;
30934;SDS011;51033;42.648;23.292;2023-05-14T06:59:20;9.07;;;6.15;;
30934;SDS011;51033;42.648;23.292;2023-05-14T07:01:46;10.43;;;6.78;;
30934;SDS011;51033;42.648;23.292;2023-05-14T07:04:11;7.13;;;6.13;;
30934;SDS011;51033;42.648;23.292;2023-05-14T07:06:36;8.07;;;6.55;;
30934;SDS011;51033;42.648;23.292;2023-05-14T07:09:02;8.57;;;7.05;;
30934;SDS011;51033;42.648;23.292;2023-05-14T07:11:28;9.40;;;7.53;;
30934;SDS011;51033;42.648;23.292;2023-05-14T07:13:53;9.32;;;6.72;;
30934;SDS011;51033;42.648;23.292;2023-05-14T07:16:18;8.75;;;7.00;;
30934;SDS011;51033;42.648;23.292;2023-05-14T07:18:44;10.82;;;6.43;;
30934;SDS011;51033;42.648;23.292;2023-05-14T07:21:10;8.75;;;6.20;;
30934;SDS011;51033;42.648;23.292;2023-05-14T07:23:37;8.68;;;6.13;;
30934;SDS011;51033;42.648;23.292;2023-05-14T07:26:03;7.68;;;5.88;;
30934;SDS011;51033;42.648;23.292;2023-05-14T07:28:31;10.68;;;6.68;;
30934;SDS011;51033;42.648;23.292;2023-05-14T07:30:57;7.50;;;5.30;;
30934;SDS011;51033;42.648;23.292;2023-05-14T07:33:22;7.97;;;6.45;;
30934;SDS011;51033;42.648;23.292;2023-05-14T07:35:48;8.45;;;5.95;;
30934;SDS011;51033;42.648;23.292;2023-05-14T07:38:14;6.22;;;5.15;;
30934;SDS011;51033;42.648;23.292;2023-05-14T07:40:40;10.75;;;6.30;;
30934;SDS011;51033;42.648;23.292;2023-05-14T07:43:05;6.78;;;5.97;;
30934;SDS011;51033;42.648;23.292;2023-05-14T07:45:31;6.80;;;5.55;;
30934;SDS011;51033;42.648;23.292;2023-05-14T07:47:56;9.27;;;6.05;;
30934;SDS011;51033;42.648;23.292;2023-05-14T07:50:22;10.60;;;6.43;;
30934;SDS011;51033;42.648;23.292;2023-05-14T07:52:47;10.50;;;6.13;;
30934;SDS011;51033;42.648;23.292;2023-05-14T07:55:13;10.18;;;6.07;;
30934;SDS011;51033;42.648;23.292;2023-05-14T07:57:38;8.70;;;5.70;;
30934;SDS011;51033;42.648;23.292;2023-05-14T08:00:04;12.90;;;7.95;;
30934;SDS011;51033;42.648;23.292;2023-05-14T08:02:33;11.15;;;6.88;;
30934;SDS011;51033;42.648;23.292;2023-05-14T08:04:59;12.10;;;6.72;;
30934;SDS011;51033;42.648;23.292;2023-05-14T08:07:25;11.18;;;7.35;;
30934;SDS011;51033;42.648;23.292;2023-05-14T08:09:53;10.60;;;7.15;;
30934;SDS011;51033;42.648;23.292;2023-05-14T08:12:18;7.68;;;6.53;;
30934;SDS011;51033;42.648;23.292;2023-05-14T08:14:44;11.95;;;6.45;;
30934;SDS011;51033;42.648;23.292;2023-05-14T08:17:10;16.20;;;7.05;;
30934;SDS011;51033;42.648;23.292;2023-05-14T08:19:35;11.40;;;7.88;;
30934;SDS011;51033;42.648;23.292;2023-05-14T08:22:01;8.95;;;7.07;;
30934;SDS011;51033;42.648;23.292;2023-05-14T08:24:26;7.78;;;6.97;;
30934;SDS011;51033;42.648;23.292;2023-05-14T08:26:51;13.43;;;7.32;;
30934;SDS011;51033;42.648;23.292;2023-05-14T08:29:17;12.13;;;7.47;;
30934;SDS011;51033;42.648;23.292;2023-05-14T08:31:42;8.90;;;7.22;;
30934;SDS011;51033;42.648;23.292;2023-05-14T08:34:08;11.35;;;8.23;;
30934;SDS011;51033;42.648;23.292;2023-05-14T08:36:33;11.15;;;7.72;;
30934;SDS011;51033;42.648;23.292;2023-05-14T08:38:58;11.57;;;7.15;;
30934;SDS011;51033;42.648;23.292;2023-05-14T08:41:24;8.80;;;7.50;;
30934;SDS011;51033;42.648;23.292;2023-05-14T08:46:27;12.27;;;7.78;;
30934;SDS011;51033;42.648;23.292;2023-05-14T08:48:55;10.88;;;7.40;;
30934;SDS011;51033;42.648;23.292;2023-05-14T08:51:25;8.05;;;7.18;;
30934;SDS011;51033;42.648;23.292;2023-05-14T08:53:51;10.38;;;7.45;;
30934;SDS011;51033;42.648;23.292;2023-05-14T08:56:17;8.23;;;7.13;;
30934;SDS011;51033;42.648;23.292;2023-05-14T08:58:43;9.05;;;7.32;;
30934;SDS011;51033;42.648;23.292;2023-05-14T09:01:09;8.23;;;6.75;;
30934;SDS011;51033;42.648;23.292;2023-05-14T09:03:35;6.80;;;6.07;;
30934;SDS011;51033;42.648;23.292;2023-05-14T09:06:03;9.63;;;7.25;;
30934;SDS011;51033;42.648;23.292;2023-05-14T09:08:30;8.77;;;7.10;;
30934;SDS011;51033;42.648;23.292;2023-05-14T09:10:55;8.07;;;6.55;;
30934;SDS011;51033;42.648;23.292;2023-05-14T09:13:21;9.02;;;7.65;;
30934;SDS011;51033;42.648;23.292;2023-05-14T09:15:46;11.55;;;7.13;;
30934;SDS011;51033;42.648;23.292;2023-05-14T09:18:13;8.13;;;7.28;;
30934;SDS011;51033;42.648;23.292;2023-05-14T09:20:38;9.60;;;8.60;;
30934;SDS011;51033;42.648;23.292;2023-05-14T09:23:03;9.15;;;7.50;;
30934;SDS011;51033;42.648;23.292;2023-05-14T09:25:32;9.13;;;7.60;;
30934;SDS011;51033;42.648;23.292;2023-05-14T09:27:57;10.82;;;7.47;;
30934;SDS011;51033;42.648;23.292;2023-05-14T09:30:23;8.45;;;6.55;;
30934;SDS011;51033;42.648;23.292;2023-05-14T09:32:52;10.98;;;7.43;;
30934;SDS011;51033;42.648;23.292;2023-05-14T09:35:24;7.45;;;6.57;;
30934;SDS011;51033;42.648;23.292;2023-05-14T09:37:50;9.30;;;6.25;;
30934;SDS011;51033;42.648;23.292;2023-05-14T09:40:19;10.35;;;6.75;;
30934;SDS011;51033;42.648;23.292;2023-05-14T09:42:46;8.15;;;7.35;;
30934;SDS011;51033;42.648;23.292;2023-05-14T09:45:15;8.88;;;6.70;;
30934;SDS011;51033;42.648;23.292;2023-05-14T09:47:41;7.50;;;6.68;;
30934;SDS011;51033;42.648;23.292;2023-05-14T09:50:07;11.25;;;5.85;;
30934;SDS011;51033;42.648;23.292;2023-05-14T09:52:33;11.02;;;7.00;;
30934;SDS011;51033;42.648;23.292;2023-05-14T09:54:59;7.80;;;6.28;;
30934;SDS011;51033;42.648;23.292;2023-05-14T09:57:25;6.60;;;5.95;;
30934;SDS011;51033;42.648;23.292;2023-05-14T09:59:52;6.82;;;6.18;;
30934;SDS011;51033;42.648;23.292;2023-05-14T10:04:48;8.73;;;6.45;;
30934;SDS011;51033;42.648;23.292;2023-05-14T10:07:16;7.38;;;6.65;;
30934;SDS011;51033;42.648;23.292;2023-05-14T10:09:45;7.35;;;6.20;;
30934;SDS011;51033;42.648;23.292;2023-05-14T10:12:12;7.30;;;6.60;;
30934;SDS011;51033;42.648;23.292;2023-05-14T10:14:42;7.50;;;6.78;;
30934;SDS011;51033;42.648;23.292;2023-05-14T10:17:13;8.95;;;7.38;;
30934;SDS011;51033;42.648;23.292;2023-05-14T10:19:46;10.70;;;7.78;;
30934;SDS011;51033;42.648;23.292;2023-05-14T10:22:16;8.95;;;6.88;;
30934;SDS011;51033;42.648;23.292;2023-05-14T10:24:46;7.70;;;6.90;;
30934;SDS011;51033;42.648;23.292;2023-05-14T10:27:14;6.80;;;6.10;;
30934;SDS011;51033;42.648;23.292;2023-05-14T10:29:41;7.72;;;5.65;;
30934;SDS011;51033;42.648;23.292;2023-05-14T10:32:17;6.43;;;5.82;;
30934;SDS011;51033;42.648;23.292;2023-05-14T10:34:44;7.60;;;5.95;;
30934;SDS011;51033;42.648;23.292;2023-05-14T10:37:11;6.00;;;5.38;;
30934;SDS011;51033;42.648;23.292;2023-05-14T10:42:33;6.18;;;5.57;;
30934;SDS011;51033;42.648;23.292;2023-05-14T10:45:05;5.85;;;5.25;;
30934;SDS011;51033;42.648;23.292;2023-05-14T10:47:32;6.63;;;4.88;;
30934;SDS011;51033;42.648;23.292;2023-05-14T10:50:03;6.95;;;6.28;;
30934;SDS011;51033;42.648;23.292;2023-05-14T10:52:31;6.78;;;6.07;;
30934;SDS011;51033;42.648;23.292;2023-05-14T10:54:59;7.20;;;5.45;;
30934;SDS011;51033;42.648;23.292;2023-05-14T10:57:28;5.78;;;5.18;;
30934;SDS011;51033;42.648;23.292;2023-05-14T10:59:56;7.05;;;6.35;;
30934;SDS011;51033;42.648;23.292;2023-05-14T11:02:30;11.30;;;6.68;;
30934;SDS011;51033;42.648;23.292;2023-05-14T11:07:26;8.38;;;7.03;;
30934;SDS011;51033;42.648;23.292;2023-05-14T11:09:55;8.85;;;5.63;;
30934;SDS011;51033;42.648;23.292;2023-05-14T11:12:25;7.93;;;5.57;;
30934;SDS011;51033;42.648;23.292;2023-05-14T11:14:51;7.28;;;6.43;;
30934;SDS011;51033;42.648;23.292;2023-05-14T11:17:17;8.30;;;6.28;;
30934;SDS011;51033;42.648;23.292;2023-05-14T11:19:43;7.10;;;6.40;;
30934;SDS011;51033;42.648;23.292;2023-05-14T11:22:10;7.80;;;6.80;;
30934;SDS011;51033;42.648;23.292;2023-05-14T11:24:38;6.65;;;5.93;;
30934;SDS011;51033;42.648;23.292;2023-05-14T11:27:04;8.95;;;6.45;;
30934;SDS011;51033;42.648;23.292;2023-05-14T11:29:32;5.80;;;5.20;;
30934;SDS011;51033;42.648;23.292;2023-05-14T11:31:57;5.68;;;5.18;;
30934;SDS011;51033;42.648;23.292;2023-05-14T11:34:23;7.22;;;6.15;;
30934;SDS011;51033;42.648;23.292;2023-05-14T11:36:48;7.95;;;6.55;;
30934;SDS011;51033;42.648;23.292;2023-05-14T11:39:17;6.10;;;5.20;;
30934;SDS011;51033;42.648;23.292;2023-05-14T11:41:46;6.25;;;5.30;;
30934;SDS011;51033;42.648;23.292;2023-05-14T11:44:11;6.60;;;5.72;;
30934;SDS011;51033;42.648;23.292;2023-05-14T11:46:37;7.75;;;7.05;;
30934;SDS011;51033;42.648;23.292;2023-05-14T11:49:03;9.05;;;7.25;;
30934;SDS011;51033;42.648;23.292;2023-05-14T11:51:29;7.03;;;6.32;;
30934;SDS011;51033;42.648;23.292;2023-05-14T11:53:54;7.07;;;6.38;;
30934;SDS011;51033;42.648;23.292;2023-05-14T11:56:20;7.60;;;6.35;;
30934;SDS011;51033;42.648;23.292;2023-05-14T11:58:47;8.98;;;7.22;;
30934;SDS011;51033;42.648;23.292;2023-05-14T12:01:13;7.80;;;7.10;;
30934;SDS011;51033;42.648;23.292;2023-05-14T12:03:39;7.07;;;6.38;;
30934;SDS011;51033;42.648;23.292;2023-05-14T12:06:06;7.63;;;6.47;;
30934;SDS011;51033;42.648;23.292;2023-05-14T12:08:34;7.13;;;6.43;;
30934;SDS011;51033;42.648;23.292;2023-05-14T12:11:01;7.97;;;7.18;;
30934;SDS011;51033;42.648;23.292;2023-05-14T12:13:28;7.78;;;7.07;;
30934;SDS011;51033;42.648;23.292;2023-05-14T12:15:56;9.52;;;8.52;;
30934;SDS011;51033;42.648;23.292;2023-05-14T12:18:27;8.98;;;6.90;;
30934;SDS011;51033;42.648;23.292;2023-05-14T12:20:53;8.77;;;7.65;;
30934;SDS011;51033;42.648;23.292;2023-05-14T12:23:25;8.20;;;7.45;;
30934;SDS011;51033;42.648;23.292;2023-05-14T12:25:53;8.82;;;8.02;;
30934;SDS011;51033;42.648;23.292;2023-05-14T12:28:18;7.70;;;6.90;;
30934;SDS011;51033;42.648;23.292;2023-05-14T12:30:44;10.32;;;6.97;;
30934;SDS011;51033;42.648;23.292;2023-05-14T12:33:13;9.77;;;8.00;;
30934;SDS011;51033;42.648;23.292;2023-05-14T12:35:39;8.73;;;7.57;;
30934;SDS011;51033;42.648;23.292;2023-05-14T12:38:05;9.30;;;7.68;;
30934;SDS011;51033;42.648;23.292;2023-05-14T12:40:30;7.80;;;7.10;;
30934;SDS011;51033;42.648;23.292;2023-05-14T12:42:56;8.43;;;7.43;;
30934;SDS011;51033;42.648;23.292;2023-05-14T12:45:22;9.00;;;8.13;;
30934;SDS011;51033;42.648;23.292;2023-05-14T12:47:47;8.10;;;7.20;;
30934;SDS011;51033;42.648;23.292;2023-05-14T12:50:13;8.65;;;7.85;;
30934;SDS011;51033;42.648;23.292;2023-05-14T12:52:38;8.00;;;7.20;;
30934;SDS011;51033;42.648;23.292;2023-05-14T12:55:08;8.55;;;7.40;;
30934;SDS011;51033;42.648;23.292;2023-05-14T12:57:34;8.93;;;8.02;;
30934;SDS011;51033;42.648;23.292;2023-05-14T13:00:00;8.35;;;7.50;;
30934;SDS011;51033;42.648;23.292;2023-05-14T13:02:26;11.13;;;8.05;;
30934;SDS011;51033;42.648;23.292;2023-05-14T13:04:52;9.65;;;8.50;;
30934;SDS011;51033;42.648;23.292;2023-05-14T13:07:17;9.63;;;7.60;;
30934;SDS011;51033;42.648;23.292;2023-05-14T13:09:43;12.27;;;10.55;;
30934;SDS011;51033;42.648;23.292;2023-05-14T13:12:08;12.55;;;10.10;;
30934;SDS011;51033;42.648;23.292;2023-05-14T13:14:33;8.88;;;7.97;;
30934;SDS011;51033;42.648;23.292;2023-05-14T13:17:00;9.93;;;8.60;;
30934;SDS011;51033;42.648;23.292;2023-05-14T13:19:26;10.57;;;9.48;;
30934;SDS011;51033;42.648;23.292;2023-05-14T13:21:51;10.90;;;9.80;;
30934;SDS011;51033;42.648;23.292;2023-05-14T13:24:16;11.07;;;9.65;;
30934;SDS011;51033;42.648;23.292;2023-05-14T13:26:42;13.73;;;9.43;;
30934;SDS011;51033;42.648;23.292;2023-05-14T13:29:08;13.10;;;10.30;;
30934;SDS011;51033;42.648;23.292;2023-05-14T13:31:34;13.68;;;10.90;;
30934;SDS011;51033;42.648;23.292;2023-05-14T13:34:00;10.45;;;9.32;;
30934;SDS011;51033;42.648;23.292;2023-05-14T13:36:26;10.65;;;9.60;;
30934;SDS011;51033;42.648;23.292;2023-05-14T13:38:52;16.83;;;11.85;;
30934;SDS011;51033;42.648;23.292;2023-05-14T13:41:17;17.23;;;12.38;;
30934;SDS011;51033;42.648;23.292;2023-05-14T13:43:42;11.70;;;10.50;;
30934;SDS011;51033;42.648;23.292;2023-05-14T13:46:08;15.07;;;12.48;;
30934;SDS011;51033;42.648;23.292;2023-05-14T13:48:33;17.23;;;12.65;;
30934;SDS011;51033;42.648;23.292;2023-05-14T13:51:01;14.88;;;12.50;;
30934;SDS011;51033;42.648;23.292;2023-05-14T13:53:26;14.48;;;12.45;;
30934;SDS011;51033;42.648;23.292;2023-05-14T13:55:52;13.00;;;11.60;;
30934;SDS011;51033;42.648;23.292;2023-05-14T13:58:22;16.63;;;13.25;;
30934;SDS011;51033;42.648;23.292;2023-05-14T14:00:49;14.90;;;12.55;;
30934;SDS011;51033;42.648;23.292;2023-05-14T14:03:15;15.38;;;11.73;;
30934;SDS011;51033;42.648;23.292;2023-05-14T14:05:41;14.05;;;12.25;;
30934;SDS011;51033;42.648;23.292;2023-05-14T14:08:06;16.35;;;11.82;;
30934;SDS011;51033;42.648;23.292;2023-05-14T14:10:32;15.73;;;12.02;;
30934;SDS011;51033;42.648;23.292;2023-05-14T14:12:57;17.35;;;14.73;;
30934;SDS011;51033;42.648;23.292;2023-05-14T14:15:23;19.73;;;12.85;;
30934;SDS011;51033;42.648;23.292;2023-05-14T14:17:48;14.10;;;12.60;;
30934;SDS011;51033;42.648;23.292;2023-05-14T14:20:13;17.70;;;14.23;;
30934;SDS011;51033;42.648;23.292;2023-05-14T14:22:39;17.70;;;13.85;;
30934;SDS011;51033;42.648;23.292;2023-05-14T14:25:07;23.80;;;16.52;;
30934;SDS011;51033;42.648;23.292;2023-05-14T14:27:34;18.70;;;14.52;;
30934;SDS011;51033;42.648;23.292;2023-05-14T14:30:03;16.67;;;13.30;;
30934;SDS011;51033;42.648;23.292;2023-05-14T14:32:34;15.63;;;13.65;;
30934;SDS011;51033;42.648;23.292;2023-05-14T14:34:59;16.33;;;13.20;;
30934;SDS011;51033;42.648;23.292;2023-05-14T14:37:25;17.27;;;13.27;;
30934;SDS011;51033;42.648;23.292;2023-05-14T14:39:50;14.88;;;13.30;;
30934;SDS011;51033;42.648;23.292;2023-05-14T14:42:16;14.95;;;13.35;;
30934;SDS011;51033;42.648;23.292;2023-05-14T14:44:41;14.02;;;12.57;;